Time;durP1;ratioP1;P1;durP2;ratioP2;P2;SDS_P1;SDS_P2;PMS_P1;PMS_P2;Temp;Humidity;BMP_temperature;BMP_pressure;BME280_temperature;BME280_humidity;BME280_pressure;Samples;Min_cycle;Max_cycle;Signal;HPM_P1;HPM_P2
2021/05/24 00:00:27;;;;;;;11.90;2.30;;;7.70;99.90;;;8.49;100.00;97990.44;5066262;28;20479;-77
2021/05/24 00:02:55;;;;;;;5.50;2.70;;;7.50;99.90;;;8.45;100.00;97999.59;5067025;28;20817;-77
2021/05/24 00:05:28;;;;;;;6.73;2.00;;;7.40;99.90;;;8.35;100.00;97998.22;5060197;28;20515;-77
2021/05/24 00:07:58;;;;;;;3.13;1.90;;;7.30;99.90;;;8.37;100.00;97997.03;5053661;28;20514;-77
2021/05/24 00:10:28;;;;;;;6.43;1.80;;;7.40;99.90;;;8.25;100.00;97989.78;5065663;28;20952;-77
2021/05/24 00:13:01;;;;;;;7.23;2.00;;;7.30;99.90;;;8.05;100.00;97990.22;5062371;28;20460;-77
2021/05/24 00:15:33;;;;;;;4.43;2.20;;;7.10;99.90;;;8.04;100.00;97991.22;5064371;28;20492;-77
2021/05/24 00:18:02;;;;;;;7.70;2.90;;;7.00;99.90;;;8.01;100.00;97988.16;5070640;28;20475;-77
2021/05/24 00:20:35;;;;;;;8.40;1.97;;;7.00;99.90;;;7.87;100.00;97989.69;5067876;28;20929;-76
2021/05/24 00:23:04;;;;;;;2.20;1.97;;;6.90;99.90;;;8.05;100.00;97986.84;5069910;28;20471;-77
2021/05/24 00:25:33;;;;;;;3.23;1.70;;;7.00;99.90;;;8.08;100.00;97983.88;5067803;28;20881;-77
2021/05/24 00:28:01;;;;;;;10.43;2.23;;;7.10;99.90;;;7.87;100.00;97989.69;5066313;28;20840;-77
2021/05/24 00:30:32;;;;;;;3.87;1.90;;;6.90;99.90;;;7.79;100.00;97981.09;5060104;28;20460;-76
2021/05/24 00:33:01;;;;;;;4.07;2.17;;;6.80;99.90;;;7.94;100.00;97976.81;5066057;28;20828;-77
2021/05/24 00:35:30;;;;;;;3.30;1.90;;;6.90;99.90;;;7.99;100.00;97974.47;5068988;28;20464;-76
2021/05/24 00:37:58;;;;;;;3.67;2.20;;;7.00;99.90;;;7.86;100.00;97985.47;5056842;28;20521;-76
2021/05/24 00:40:28;;;;;;;5.37;2.20;;;6.80;99.90;;;7.81;100.00;97979.16;5069741;28;20464;-77
2021/05/24 00:42:57;;;;;;;3.47;2.10;;;6.80;99.90;;;7.77;100.00;97970.88;5065102;28;20968;-76
2021/05/24 00:45:25;;;;;;;3.00;1.77;;;6.80;99.90;;;7.76;100.00;97976.25;5066615;28;20899;-76
2021/05/24 00:47:53;;;;;;;6.10;1.90;;;6.70;99.90;;;7.77;100.00;97970.06;5070991;28;20499;-77
2021/05/24 00:50:22;;;;;;;4.50;2.27;;;6.80;99.90;;;7.83;100.00;97970.19;5066940;28;20519;-77
2021/05/24 00:52:50;;;;;;;4.10;1.80;;;6.90;99.90;;;7.85;100.00;97970.00;5067905;28;20463;-77
2021/05/24 00:55:19;;;;;;;2.83;1.80;;;6.90;99.90;;;7.77;100.00;97975.28;5069662;28;20517;-77
2021/05/24 00:57:50;;;;;;;3.93;1.87;;;6.80;99.90;;;7.84;100.00;97971.00;5069360;28;20471;-77
2021/05/24 01:00:30;;;;;;;4.53;2.60;;;6.90;99.90;;;7.91;100.00;97970.13;5069148;28;20460;-77
2021/05/24 01:02:59;;;;;;;4.67;2.27;;;7.00;99.90;;;7.71;100.00;97961.13;5066829;28;20468;-77
2021/05/24 01:05:27;;;;;;;6.77;2.50;;;6.80;99.90;;;7.51;100.00;97965.97;5060463;28;20988;-77
2021/05/24 01:07:55;;;;;;;6.07;2.10;;;6.50;99.90;;;7.52;100.00;97962.38;5068229;28;20496;-76
2021/05/24 01:10:24;;;;;;;2.80;1.80;;;6.50;99.90;;;7.55;100.00;97964.66;5070071;28;20916;-77
2021/05/24 01:12:54;;;;;;;2.80;1.60;;;6.50;99.90;;;7.56;100.00;97960.25;5065175;28;20460;-77
2021/05/24 01:15:22;;;;;;;6.40;1.80;;;6.50;99.90;;;7.37;100.00;97956.25;5066810;28;21057;-77
2021/05/24 01:17:50;;;;;;;2.40;1.70;;;6.40;99.90;;;7.33;100.00;97954.97;5069706;28;20456;-77
2021/05/24 01:20:18;;;;;;;2.87;1.80;;;6.30;99.90;;;7.41;100.00;97947.16;5067516;28;20471;-77
2021/05/24 01:22:57;;;;;;;2.97;1.97;;;6.40;99.90;;;7.38;100.00;97946.69;5066918;28;20468;-76
2021/05/24 01:25:26;;;;;;;2.23;1.60;;;6.40;99.90;;;7.31;100.00;97951.75;5066324;28;20461;-77
2021/05/24 01:27:54;;;;;;;6.10;1.90;;;6.30;99.90;;;7.33;100.00;97939.38;5063996;28;20529;-77
2021/05/24 01:30:23;;;;;;;1.60;1.50;;;6.30;99.90;;;7.36;100.00;97935.63;5062682;28;21008;-77
2021/05/24 01:32:52;;;;;;;2.50;1.73;;;6.40;99.90;;;7.39;100.00;97938.69;5065685;28;20779;-77
2021/05/24 01:35:20;;;;;;;3.47;1.93;;;6.40;99.90;;;7.40;100.00;97929.09;5067829;28;20463;-76
2021/05/24 01:37:49;;;;;;;4.47;1.80;;;6.40;99.90;;;7.29;100.00;97922.47;5063627;28;20452;-76
2021/05/24 01:40:17;;;;;;;4.23;1.83;;;6.30;99.90;;;7.25;100.00;97931.63;5066930;28;20456;-77
2021/05/24 01:42:45;;;;;;;3.73;2.00;;;6.20;99.90;;;7.10;100.00;97925.50;5065793;28;20528;-77
2021/05/24 01:45:15;;;;;;;6.03;1.90;;;6.10;99.90;;;7.11;100.00;97916.72;5064547;28;20451;-77
2021/05/24 01:47:44;;;;;;;8.70;2.10;;;6.10;99.90;;;7.24;100.00;97917.00;5066891;28;20503;-77
2021/05/24 01:50:14;;;;;;;3.80;1.70;;;6.30;99.90;;;7.15;100.00;97910.19;5059752;28;20463;-76
2021/05/24 01:52:44;;;;;;;7.70;1.70;;;6.10;99.90;;;7.18;100.00;97915.06;5065713;28;20456;-77
2021/05/24 01:55:14;;;;;;;3.83;1.60;;;6.20;99.90;;;7.10;100.00;97915.09;5066169;28;20471;-77
2021/05/24 01:57:43;;;;;;;1.80;1.40;;;6.10;99.90;;;7.14;100.00;97912.97;5066312;28;20716;-77
2021/05/24 02:00:16;;;;;;;2.73;2.00;;;6.10;99.90;;;7.14;100.00;97913.78;5064028;28;20467;-77
2021/05/24 02:02:45;;;;;;;5.00;2.03;;;6.20;99.90;;;7.11;100.00;97902.91;5061388;28;20472;-77
2021/05/24 02:05:16;;;;;;;3.80;1.70;;;6.10;99.90;;;7.06;100.00;97898.19;5065475;28;20865;-77
2021/05/24 02:07:47;;;;;;;7.63;1.97;;;6.10;99.90;;;7.06;100.00;97890.41;5065847;28;20578;-76
2021/05/24 02:10:19;;;;;;;3.30;1.80;;;6.10;99.90;;;7.03;100.00;97891.56;5065706;28;20455;-77
2021/05/24 02:12:48;;;;;;;7.83;1.70;;;6.10;99.90;;;6.96;100.00;97889.78;5065516;28;20460;-76
2021/05/24 02:15:23;;;;;;;4.33;1.80;;;6.00;99.90;;;6.89;100.00;97886.25;5065675;28;20467;-76
2021/05/24 02:17:52;;;;;;;3.43;1.50;;;5.90;99.90;;;7.01;100.00;97884.91;5066644;28;20450;-77
2021/05/24 02:20:23;;;;;;;2.60;1.73;;;6.00;99.90;;;7.04;100.00;97881.97;5064338;28;20865;-77
2021/05/24 02:22:52;;;;;;;5.27;2.90;;;6.00;99.90;;;6.88;100.00;97882.84;5067396;28;20444;-76
2021/05/24 02:25:21;;;;;;;3.03;2.20;;;5.90;99.90;;;6.89;100.00;97883.66;5063864;28;20463;-77
2021/05/24 02:27:50;;;;;;;3.93;2.47;;;5.90;99.90;;;6.79;100.00;97878.66;5061112;28;21053;-77
2021/05/24 02:30:22;;;;;;;4.03;1.70;;;5.80;99.90;;;6.67;100.00;97876.56;5064688;28;20466;-76
2021/05/24 02:32:51;;;;;;;3.47;1.80;;;5.70;99.90;;;6.77;100.00;97879.81;5065929;28;20507;-76
2021/05/24 02:35:24;;;;;;;2.40;1.57;;;5.80;99.90;;;6.76;100.00;97883.38;5057501;28;20974;-76
2021/05/24 02:37:52;;;;;;;4.90;2.27;;;5.80;99.90;;;6.64;100.00;97876.91;5065371;28;20470;-77
2021/05/24 02:40:22;;;;;;;3.83;1.53;;;5.60;99.90;;;6.66;100.00;97877.56;5065209;28;21019;-76
2021/05/24 02:42:52;;;;;;;2.00;1.60;;;5.70;99.90;;;6.73;100.00;97871.53;5067962;28;20459;-77
2021/05/24 02:45:21;;;;;;;2.53;1.80;;;5.70;99.90;;;6.77;100.00;97874.59;5065111;28;20715;-77
2021/05/24 02:47:51;;;;;;;2.57;1.80;;;5.80;99.90;;;6.61;100.00;97870.25;5067821;28;20506;-77
2021/05/24 02:50:24;;;;;;;4.70;2.00;;;5.60;99.90;;;6.61;100.00;97872.03;5063723;28;20467;-76
2021/05/24 02:52:53;;;;;;;2.13;1.90;;;5.60;99.90;;;6.60;100.00;97868.63;5062494;28;20850;-77
2021/05/24 02:55:23;;;;;;;1.53;1.43;;;5.60;99.90;;;6.47;100.00;97876.13;5066949;28;20471;-76
2021/05/24 02:57:51;;;;;;;2.00;1.60;;;5.40;99.90;;;6.62;100.00;97866.69;5067197;28;20456;-76
2021/05/24 03:00:22;;;;;;;3.53;1.73;;;5.60;99.90;;;6.57;100.00;97869.78;5062817;28;21009;-76
2021/05/24 03:02:51;;;;;;;4.70;2.07;;;5.50;99.90;;;6.64;100.00;97864.72;5063220;28;20462;-77
2021/05/24 03:05:21;;;;;;;6.53;1.97;;;5.70;99.90;;;6.77;100.00;97861.63;5065438;28;20492;-77
2021/05/24 03:07:52;;;;;;;4.30;1.80;;;5.80;99.90;;;6.57;100.00;97861.16;5066886;28;20499;-77
2021/05/24 03:10:24;;;;;;;4.73;1.97;;;5.60;99.90;;;6.55;100.00;97866.53;5060936;28;20470;-77
2021/05/24 03:12:55;;;;;;;3.00;1.40;;;5.60;99.90;;;6.57;100.00;97858.56;5064069;28;20552;-77
2021/05/24 03:15:24;;;;;;;1.63;1.53;;;5.60;99.90;;;6.58;100.00;97861.00;5063927;28;20999;-77
2021/05/24 03:17:53;;;;;;;9.37;1.50;;;5.60;99.90;;;6.43;100.00;97859.25;5065451;28;20464;-76
2021/05/24 03:20:21;;;;;;;6.03;1.80;;;5.40;99.90;;;6.34;100.00;97868.03;5061319;28;20517;-76
2021/05/24 03:22:50;;;;;;;2.50;1.63;;;5.30;99.90;;;6.39;100.00;97861.38;5065510;28;20538;-77
2021/05/24 03:25:20;;;;;;;4.57;2.10;;;5.40;99.90;;;6.52;100.00;97856.50;5059291;28;20464;-76
2021/05/24 03:27:50;;;;;;;3.80;1.63;;;5.60;99.90;;;6.41;100.00;97849.03;5065351;28;20533;-78
2021/05/24 03:30:19;;;;;;;2.00;1.50;;;5.40;99.90;;;6.54;100.00;97854.53;5058885;28;20527;-76
2021/05/24 03:32:47;;;;;;;1.87;1.50;;;5.60;99.90;;;6.52;100.00;97851.28;5063353;28;20463;-77
2021/05/24 03:35:16;;;;;;;2.10;1.70;;;5.50;99.90;;;6.55;100.00;97845.75;5067250;28;21001;-77
2021/05/24 03:37:44;;;;;;;18.53;1.97;;;5.60;99.90;;;6.50;100.00;97842.84;5064560;28;21210;-76
2021/05/24 03:40:17;;;;;;;2.20;1.40;;;5.50;99.90;;;6.48;100.00;97844.81;5062624;28;20465;-77
2021/05/24 03:42:45;;;;;;;2.30;1.50;;;5.50;99.90;;;6.44;100.00;97840.91;5062656;28;20467;-77
2021/05/24 03:45:18;;;;;;;2.13;1.80;;;5.40;99.90;;;6.45;100.00;97847.75;5063845;28;20466;-77
2021/05/24 03:47:46;;;;;;;2.50;1.80;;;5.50;99.90;;;6.61;100.00;97846.88;5065198;28;21040;-76
2021/05/24 03:50:15;;;;;;;4.30;1.83;;;5.70;99.90;;;6.61;100.00;97840.88;5068304;28;20509;-77
2021/05/24 03:52:43;;;;;;;2.47;1.43;;;5.60;99.90;;;6.63;100.00;97854.50;5070410;28;20958;-77
2021/05/24 03:55:14;;;;;;;2.17;1.57;;;5.70;99.90;;;6.53;100.00;97847.69;5064228;28;20776;-76
2021/05/24 03:57:42;;;;;;;3.37;1.53;;;5.50;99.90;;;6.49;100.00;97843.81;5068456;28;20859;-77
2021/05/24 04:00:13;;;;;;;5.03;1.67;;;5.50;99.90;;;6.47;100.00;97835.38;5067868;28;20446;-77
2021/05/24 04:02:42;;;;;;;1.67;1.53;;;5.50;99.90;;;6.53;100.00;97841.69;5066586;28;20477;-76
2021/05/24 04:05:16;;;;;;;1.77;1.40;;;5.60;99.90;;;6.51;100.00;97834.09;5068796;28;20486;-76
2021/05/24 04:07:48;;;;;;;6.70;1.60;;;5.60;99.90;;;6.48;100.00;97834.41;5067800;28;20496;-77
2021/05/24 04:10:18;;;;;;;2.53;1.53;;;5.60;99.90;;;6.40;100.00;97836.22;5067583;28;20475;-76
2021/05/24 04:12:46;;;;;;;2.80;1.53;;;5.40;99.90;;;6.46;100.00;97838.13;5067051;28;20462;-77
2021/05/24 04:15:17;;;;;;;2.80;1.63;;;5.50;99.90;;;6.51;100.00;97843.66;5065588;28;20796;-76
2021/05/24 04:17:46;;;;;;;1.90;1.40;;;5.50;99.90;;;6.45;100.00;97847.75;5070958;28;20465;-76
2021/05/24 04:20:16;;;;;;;2.70;1.80;;;5.50;99.90;;;6.34;100.00;97834.28;5063317;28;20980;-77
2021/05/24 04:22:45;;;;;;;3.97;1.37;;;5.30;99.90;;;6.44;100.00;97833.13;5071263;28;20455;-77
2021/05/24 04:25:13;;;;;;;1.63;1.53;;;5.50;99.90;;;6.42;100.00;97837.66;5068620;28;20461;-77
2021/05/24 04:27:41;;;;;;;2.70;1.40;;;5.40;99.90;;;6.56;100.00;97823.97;5068937;28;20487;-77
2021/05/24 04:30:12;;;;;;;1.60;1.50;;;5.60;99.90;;;6.69;100.00;97825.25;5060841;28;20469;-77
2021/05/24 04:32:42;;;;;;;3.20;1.50;;;5.70;99.90;;;6.68;100.00;97824.44;5056197;28;20464;-77
2021/05/24 04:35:11;;;;;;;3.27;1.63;;;5.70;99.90;;;6.69;100.00;97826.06;5067168;28;20493;-77
2021/05/24 04:37:39;;;;;;;2.87;1.47;;;5.70;99.90;;;6.75;100.00;97820.19;5070845;28;20508;-77
2021/05/24 04:40:08;;;;;;;2.60;2.10;;;5.80;99.90;;;6.81;100.00;97821.28;5069202;28;20516;-77
2021/05/24 04:42:36;;;;;;;4.30;1.93;;;5.80;99.90;;;6.93;100.00;97812.97;5069277;28;20448;-76
2021/05/24 04:45:06;;;;;;;8.73;2.10;;;6.10;99.90;;;7.07;100.00;97816.66;5065968;28;20861;-76
2021/05/24 04:47:35;;;;;;;6.70;2.10;;;6.20;99.90;;;7.15;100.00;97813.97;5068953;28;21150;-77
2021/05/24 04:50:06;;;;;;;4.20;2.00;;;6.30;99.90;;;7.22;100.00;97814.91;5070053;28;20465;-76
2021/05/24 04:52:34;;;;;;;7.30;2.23;;;6.40;99.90;;;7.28;100.00;97816.84;5069552;28;20800;-77
2021/05/24 04:55:03;;;;;;;3.83;1.77;;;6.50;99.90;;;7.31;100.00;97820.91;5068309;28;20498;-76
2021/05/24 04:57:31;;;;;;;3.23;1.90;;;6.50;99.90;;;7.38;100.00;97811.41;5068744;28;20472;-77
2021/05/24 05:00:00;;;;;;;3.87;2.10;;;6.60;99.90;;;7.46;100.00;97814.75;5068757;28;20456;-77
2021/05/24 05:02:28;;;;;;;3.70;1.60;;;6.70;99.90;;;7.55;100.00;97812.94;5062959;28;20522;-77
2021/05/24 05:04:57;;;;;;;3.70;2.13;;;6.80;99.90;;;7.64;100.00;97809.28;5066635;28;21044;-77
2021/05/24 05:07:27;;;;;;;3.47;1.80;;;6.90;99.90;;;7.67;100.00;97805.53;5070164;28;20448;-77
2021/05/24 05:09:55;;;;;;;2.10;1.53;;;6.90;99.90;;;7.60;100.00;97800.22;5065786;28;20464;-77
2021/05/24 05:12:23;;;;;;;3.50;2.20;;;6.80;99.90;;;7.59;100.00;97791.59;5066858;28;20999;-77
2021/05/24 05:14:52;;;;;;;1.70;1.60;;;6.70;99.90;;;7.69;100.00;97790.53;5069444;28;20510;-77
2021/05/24 05:17:20;;;;;;;6.30;2.80;;;6.90;99.90;;;7.74;100.00;97785.63;5065583;28;20455;-76
2021/05/24 05:19:48;;;;;;;2.73;1.87;;;6.90;99.90;;;7.75;100.00;97787.22;5068526;28;20459;-77
2021/05/24 05:22:17;;;;;;;1.77;1.60;;;6.90;99.90;;;7.82;100.00;97785.53;5069068;28;20467;-77
2021/05/24 05:24:46;;;;;;;1.73;1.30;;;6.90;99.90;;;7.91;100.00;97782.69;5067903;28;20498;-77
2021/05/24 05:27:14;;;;;;;3.07;1.70;;;7.10;99.90;;;7.99;100.00;97787.03;5065810;28;20460;-76
2021/05/24 05:29:42;;;;;;;3.07;1.47;;;7.20;99.90;;;8.02;100.00;97786.66;5067130;28;20937;-76
2021/05/24 05:32:10;;;;;;;2.70;1.30;;;7.30;99.90;;;8.06;100.00;97780.94;5068075;28;20460;-77
2021/05/24 05:34:38;;;;;;;3.60;1.57;;;7.20;99.90;;;8.12;100.00;97779.44;5064583;28;20472;-77
2021/05/24 05:37:06;;;;;;;2.40;1.57;;;7.30;99.90;;;8.09;100.00;97782.38;5068430;28;20468;-76
2021/05/24 05:39:35;;;;;;;3.73;1.53;;;7.20;99.90;;;8.16;100.00;97767.66;5067072;28;20452;-77
2021/05/24 05:42:04;;;;;;;3.43;1.60;;;7.30;99.90;;;8.24;100.00;97775.38;5064571;28;20456;-77
2021/05/24 05:44:32;;;;;;;2.27;1.40;;;7.40;99.90;;;8.34;100.00;97772.53;5061731;28;20468;-77
2021/05/24 05:47:00;;;;;;;2.70;1.40;;;7.60;99.90;;;8.37;100.00;97772.19;5066179;28;20496;-77
2021/05/24 05:49:28;;;;;;;2.40;1.53;;;7.70;99.90;;;8.44;100.00;97768.69;5061525;28;20886;-77
2021/05/24 05:51:56;;;;;;;2.23;1.37;;;7.70;99.90;;;8.47;100.00;97768.31;5068452;28;20463;-77
2021/05/24 05:54:25;;;;;;;2.80;1.80;;;7.70;99.90;;;8.49;100.00;97750.72;5060019;28;20468;-77
2021/05/24 05:56:53;;;;;;;2.07;1.40;;;7.70;99.90;;;8.55;100.00;97754.38;5058242;28;20548;-77
2021/05/24 05:59:22;;;;;;;3.63;1.30;;;7.70;99.90;;;8.64;100.00;97757.72;5065791;28;20487;-77
2021/05/24 06:01:50;;;;;;;5.87;1.57;;;7.80;99.90;;;8.70;100.00;97752.59;5060835;28;20466;-77
2021/05/24 06:04:18;;;;;;;2.07;1.50;;;7.80;99.90;;;8.79;100.00;97755.88;5063365;28;20479;-78
2021/05/24 06:06:46;;;;;;;4.20;1.90;;;8.00;99.90;;;8.87;100.00;97753.97;5069669;28;20452;-77
2021/05/24 06:09:14;;;;;;;1.93;1.50;;;8.10;99.90;;;8.99;100.00;97751.69;5067231;28;20541;-77
2021/05/24 06:11:42;;;;;;;1.93;1.40;;;8.30;99.90;;;9.08;100.00;97755.81;5068284;28;20475;-77
2021/05/24 06:14:10;;;;;;;2.30;1.47;;;8.50;99.90;;;9.16;100.00;97747.88;5063571;28;20459;-77
2021/05/24 06:16:39;;;;;;;4.40;1.50;;;8.50;99.90;;;9.27;100.00;97743.94;5065265;28;20452;-76
2021/05/24 06:19:07;;;;;;;3.47;1.80;;;8.70;99.90;;;9.36;100.00;97735.03;5067060;28;20605;-77
2021/05/24 06:21:35;;;;;;;1.63;1.43;;;8.80;99.90;;;9.46;100.00;97738.13;5065890;28;20546;-77
2021/05/24 06:24:05;;;;;;;3.63;1.40;;;8.90;99.90;;;9.56;100.00;97733.41;5068804;28;20440;-77
2021/05/24 06:26:33;;;;;;;2.20;1.67;;;9.00;99.90;;;9.64;100.00;97737.69;5066082;28;20464;-77
2021/05/24 06:29:01;;;;;;;1.50;1.23;;;9.00;99.90;;;9.71;100.00;97730.72;5068630;28;20487;-77
2021/05/24 06:31:29;;;;;;;3.50;1.57;;;9.00;99.90;;;9.75;100.00;97730.16;5066581;28;20452;-77
2021/05/24 06:33:58;;;;;;;2.23;1.40;;;9.10;99.90;;;9.81;100.00;97726.78;5068441;28;20456;-77
2021/05/24 06:36:26;;;;;;;2.03;1.40;;;9.20;99.90;;;9.86;100.00;97723.56;5067646;28;20463;-77
2021/05/24 06:38:54;;;;;;;1.73;1.20;;;9.20;99.90;;;9.91;100.00;97731.66;5068233;28;20890;-77
2021/05/24 06:41:22;;;;;;;2.50;1.20;;;9.20;99.90;;;9.95;100.00;97727.66;5068287;28;20432;-77
2021/05/24 06:43:50;;;;;;;1.50;1.40;;;9.30;99.90;;;9.97;100.00;97721.25;5067527;28;20456;-77
2021/05/24 06:46:18;;;;;;;5.77;1.73;;;9.20;99.90;;;10.01;100.00;97721.69;5066962;28;20484;-77
2021/05/24 06:48:46;;;;;;;2.03;1.50;;;9.30;99.90;;;10.05;100.00;97721.13;5068556;28;20484;-77
2021/05/24 06:51:15;;;;;;;3.40;1.53;;;9.40;99.90;;;10.08;100.00;97717.31;5065775;28;20460;-77
2021/05/24 06:53:43;;;;;;;3.83;1.70;;;9.40;99.90;;;10.14;100.00;97727.00;5065907;28;20885;-77
2021/05/24 06:56:11;;;;;;;2.00;1.60;;;9.50;99.90;;;10.20;100.00;97725.44;5066372;28;20479;-77
2021/05/24 06:58:39;;;;;;;3.17;1.37;;;9.50;99.90;;;10.24;100.00;97722.25;5066512;28;21090;-77
2021/05/24 07:01:07;;;;;;;9.43;1.47;;;9.50;99.90;;;10.28;100.00;97707.78;5063583;28;20453;-77
2021/05/24 07:03:35;;;;;;;2.47;1.63;;;9.60;99.90;;;10.34;100.00;97714.88;5063249;28;20987;-77
2021/05/24 07:06:04;;;;;;;1.93;1.20;;;9.70;99.90;;;10.41;100.00;97713.09;5062593;28;20953;-77
2021/05/24 07:08:33;;;;;;;1.57;1.37;;;9.80;99.90;;;10.48;100.00;97719.16;5064177;28;20499;-77
2021/05/24 07:11:01;;;;;;;3.70;1.50;;;9.90;99.90;;;10.54;100.00;97710.56;5065754;28;20467;-77
2021/05/24 07:13:29;;;;;;;2.37;1.60;;;10.00;99.90;;;10.62;100.00;97714.00;5063947;28;20472;-77
2021/05/24 07:15:57;;;;;;;3.60;1.53;;;10.00;99.90;;;10.68;100.00;97707.97;5062184;28;20742;-77
2021/05/24 07:18:25;;;;;;;4.63;1.60;;;10.10;99.90;;;10.76;100.00;97707.81;5065729;28;20471;-77
2021/05/24 07:20:53;;;;;;;1.83;1.50;;;10.20;99.90;;;10.84;100.00;97703.19;5064826;28;20509;-77
2021/05/24 07:23:21;;;;;;;3.43;1.60;;;10.30;99.90;;;10.92;100.00;97700.41;5063003;28;20493;-80
2021/05/24 07:25:50;;;;;;;7.77;2.13;;;10.30;99.90;;;11.01;100.00;97701.84;5069553;28;20466;-76
2021/05/24 07:28:19;;;;;;;4.47;1.37;;;10.50;99.90;;;11.08;100.00;97700.03;5064579;28;20468;-76
2021/05/24 07:30:47;;;;;;;1.50;1.30;;;10.60;99.90;;;11.20;100.00;97702.06;5068988;28;20525;-76
2021/05/24 07:33:15;;;;;;;3.67;1.50;;;10.70;99.90;;;11.28;100.00;97701.91;5070401;28;20456;-76
2021/05/24 07:35:43;;;;;;;2.03;1.73;;;10.70;99.90;;;11.38;100.00;97704.94;5066257;28;20452;-76
2021/05/24 07:38:11;;;;;;;1.50;1.40;;;10.80;99.90;;;11.44;100.00;97712.78;5070030;28;20819;-80
2021/05/24 07:40:39;;;;;;;13.97;5.70;;;11.00;99.90;;;11.53;100.00;97711.56;5069201;28;20517;-76
2021/05/24 07:43:08;;;;;;;2.40;1.20;;;11.00;99.90;;;11.59;100.00;97713.38;5068052;28;20529;-76
2021/05/24 07:45:36;;;;;;;3.43;1.20;;;11.00;99.90;;;11.72;100.00;97709.19;5068969;28;20463;-77
2021/05/24 07:48:05;;;;;;;1.80;1.07;;;11.20;99.90;;;11.79;100.00;97713.41;5071765;28;20445;-77
2021/05/24 07:50:34;;;;;;;4.83;1.17;;;11.20;99.90;;;11.88;100.00;97703.50;5070519;28;20495;-77
2021/05/24 07:53:02;;;;;;;5.97;1.30;;;11.30;99.90;;;11.97;100.00;97694.44;5065734;28;20498;-77
2021/05/24 07:55:30;;;;;;;1.57;1.00;;;11.40;99.90;;;12.05;98.50;97694.22;5068636;28;20476;-77
2021/05/24 07:57:58;;;;;;;3.83;1.10;;;11.40;99.90;;;12.13;97.70;97687.97;5067143;28;20467;-77
2021/05/24 08:00:28;;;;;;;1.60;1.10;;;11.50;99.90;;;12.24;97.59;97696.00;5072335;28;20452;-77
2021/05/24 08:02:56;;;;;;;1.67;1.10;;;11.60;99.90;;;12.30;96.12;97684.69;5069302;28;20444;-77
2021/05/24 08:05:24;;;;;;;3.43;1.50;;;11.70;99.90;;;12.38;95.05;97681.03;5065635;28;20463;-77
2021/05/24 08:07:52;;;;;;;4.47;1.30;;;11.70;99.90;;;12.46;93.88;97684.22;5071688;28;20963;-77
2021/05/24 08:10:20;;;;;;;1.83;1.20;;;11.80;99.90;;;12.57;92.85;97677.50;5071520;28;20561;-77
2021/05/24 08:12:48;;;;;;;3.73;1.10;;;12.00;99.90;;;12.67;92.83;97685.75;5071592;28;20460;-77
2021/05/24 08:15:29;;;;;;;2.30;1.00;;;12.10;99.90;;;12.77;93.30;97680.88;5070222;28;20691;-77
2021/05/24 08:18:00;;;;;;;1.90;1.13;;;12.20;99.90;;;12.90;91.77;97670.31;5068425;28;20825;-77
2021/05/24 08:20:29;;;;;;;5.97;1.20;;;12.50;99.90;;;12.95;90.97;97667.84;5070860;28;20448;-77
2021/05/24 08:22:58;;;;;;;3.57;2.17;;;12.40;99.90;;;12.99;88.13;97658.53;5062646;28;20526;-80
2021/05/24 08:25:26;;;;;;;5.50;2.10;;;12.40;99.90;;;13.11;89.04;97663.94;5069403;28;20961;-77
2021/05/24 08:27:54;;;;;;;2.27;1.20;;;12.60;99.90;;;13.19;88.50;97644.50;5065287;28;20459;-77
2021/05/24 08:30:31;;;;;;;2.23;1.20;;;12.60;99.90;;;13.33;89.12;97646.78;5071319;28;20858;-77
2021/05/24 08:33:00;;;;;;;5.60;3.17;;;12.90;99.90;;;13.36;90.01;97638.50;5070245;28;20440;-77
2021/05/24 08:35:28;;;;;;;2.17;1.00;;;12.90;99.90;;;13.45;88.75;97641.66;5070584;28;20449;-78
2021/05/24 08:37:56;;;;;;;2.60;0.90;;;12.90;99.90;;;13.47;87.34;97643.03;5070346;28;20979;-78
2021/05/24 08:40:25;;;;;;;3.83;1.30;;;12.90;99.90;;;13.54;86.39;97645.63;5070515;28;20486;-78
2021/05/24 08:43:00;;;;;;;2.50;1.00;;;13.00;99.90;;;13.64;85.68;97629.38;5067457;28;20432;-78
2021/05/24 08:45:31;;;;;;;1.73;0.93;;;13.20;99.90;;;13.69;85.38;97637.41;5070550;28;20494;-78
2021/05/24 08:47:59;;;;;;;7.50;1.60;;;13.20;99.90;;;13.77;84.55;97622.19;5069644;28;20445;-77
2021/05/24 08:50:28;;;;;;;17.80;1.33;;;13.20;99.90;;;13.80;83.73;97613.84;5069666;28;20503;-77
2021/05/24 08:52:56;;;;;;;8.90;2.13;;;13.30;99.90;;;13.88;83.76;97604.88;5069253;28;20960;-77
2021/05/24 08:55:24;;;;;;;3.30;1.20;;;13.40;99.90;;;13.94;83.58;97611.88;5068085;28;20452;-77
2021/05/24 08:57:52;;;;;;;3.30;1.13;;;13.40;99.90;;;14.03;83.01;97613.19;5067746;28;20830;-76
2021/05/24 09:00:21;;;;;;;4.77;1.57;;;13.50;99.90;;;14.07;82.62;97598.59;5063215;28;20475;-77
2021/05/24 09:02:53;;;;;;;4.70;1.40;;;13.50;99.90;;;14.12;83.46;97590.84;5065658;28;20457;-76
2021/05/24 09:05:29;;;;;;;3.37;1.07;;;13.50;99.90;;;14.22;82.95;97585.88;5062374;28;21004;-77
2021/05/24 09:08:00;;;;;;;2.20;1.13;;;13.60;99.90;;;14.25;83.25;97588.06;5069564;28;20459;-77
2021/05/24 09:10:30;;;;;;;2.80;1.20;;;13.70;99.90;;;14.33;81.58;97579.06;5069958;28;20859;-77
2021/05/24 09:12:58;;;;;;;2.57;1.23;;;13.90;99.90;;;14.41;80.91;97569.06;5067333;28;20462;-84
2021/05/24 09:15:27;;;;;;;12.47;6.53;;;13.90;99.90;;;14.47;82.14;97577.91;5063619;28;20537;-78
2021/05/24 09:18:00;;;;;;;4.37;1.20;;;14.00;99.90;;;14.55;81.58;97575.75;5069382;28;20443;-78
2021/05/24 09:20:35;;;;;;;4.13;1.30;;;14.10;99.90;;;14.63;81.02;97571.19;5070631;28;20801;-78
2021/05/24 09:23:12;;;;;;;2.73;1.07;;;14.20;99.90;;;14.73;78.67;97566.19;5068156;28;20432;-78
2021/05/24 09:26:00;;;;;;;7.37;1.53;;;14.30;99.40;;;14.87;76.60;97567.59;5070616;28;20975;-77
2021/05/24 09:28:34;;;;;;;3.97;1.23;;;14.40;99.00;;;15.08;76.89;97557.34;5065674;28;20501;-77
2021/05/24 09:31:07;;;;;;;3.40;1.30;;;14.60;99.20;;;15.17;76.21;97547.25;5069013;28;20488;-78
2021/05/24 09:33:36;;;;;;;4.80;1.30;;;14.70;98.90;;;15.26;76.55;97538.00;5068133;28;20452;-78
2021/05/24 09:36:07;;;;;;;3.40;1.40;;;14.80;99.10;;;15.35;75.19;97552.41;5067066;28;20985;-77
2021/05/24 09:38:39;;;;;;;2.57;1.33;;;14.90;98.80;;;15.43;75.11;97551.28;5063179;28;20471;-77
2021/05/24 09:41:10;;;;;;;4.17;1.10;;;15.10;98.80;;;15.53;73.47;97541.78;5063105;28;20530;-77
2021/05/24 09:43:45;;;;;;;5.27;1.30;;;15.20;98.20;;;15.56;73.70;97551.88;5060096;28;20460;-78
2021/05/24 09:46:20;;;;;;;2.87;1.30;;;15.10;98.30;;;15.56;70.78;97548.44;5063088;28;20491;-77
2021/05/24 09:48:52;;;;;;;8.73;1.30;;;15.00;97.20;;;15.60;70.84;97555.66;5061345;28;20475;-77
2021/05/24 09:51:24;;;;;;;4.77;1.60;;;15.00;97.40;;;15.65;69.34;97554.16;5062088;28;20513;-78
2021/05/24 09:54:01;;;;;;;2.10;0.97;;;15.20;97.10;;;15.62;69.32;97565.19;5063165;28;20494;-77
2021/05/24 09:56:32;;;;;;;2.23;1.20;;;15.00;97.00;;;15.65;67.80;97546.25;5063483;28;20471;-77
2021/05/24 09:59:06;;;;;;;4.03;1.30;;;15.10;96.50;;;15.66;67.49;97551.28;5062783;28;20525;-77
2021/05/24 10:01:37;;;;;;;2.87;1.10;;;15.20;96.50;;;15.64;66.41;97552.56;5058222;28;20510;-77
2021/05/24 10:04:08;;;;;;;4.20;1.10;;;15.00;96.00;;;15.71;66.47;97547.97;5064332;28;20980;-77
2021/05/24 10:06:38;;;;;;;3.27;1.30;;;15.20;96.30;;;15.76;67.21;97540.16;5063793;28;20468;-77
2021/05/24 10:09:09;;;;;;;2.90;1.33;;;15.20;96.30;;;15.83;67.86;97548.72;5063329;28;20448;-77
2021/05/24 10:11:39;;;;;;;1.37;1.10;;;15.40;96.60;;;15.83;66.19;97543.44;5058955;28;20476;-78
2021/05/24 10:14:08;;;;;;;6.43;1.23;;;15.30;95.80;;;15.87;66.31;97539.31;5068275;28;20457;-77
2021/05/24 10:16:43;;;;;;;1.87;1.17;;;15.30;96.00;;;15.91;66.25;97530.72;5065416;28;20463;-77
2021/05/24 10:19:13;;;;;;;3.50;1.30;;;15.40;95.80;;;15.96;65.71;97530.84;5068147;28;20459;-78
2021/05/24 10:21:43;;;;;;;3.43;1.17;;;15.40;95.70;;;16.02;66.19;97545.72;5066794;28;20896;-78
2021/05/24 10:24:12;;;;;;;3.57;1.10;;;15.40;95.90;;;16.06;64.60;97530.22;5065007;28;20494;-77
2021/05/24 10:26:43;;;;;;;2.90;1.30;;;15.40;95.50;;;16.14;63.90;97532.47;5058700;28;20460;-77
2021/05/24 10:29:12;;;;;;;3.73;1.17;;;15.50;95.30;;;16.31;62.30;97528.06;5061921;28;20507;-77
2021/05/24 10:31:41;;;;;;;1.73;1.23;;;15.80;94.60;;;16.40;62.60;97534.56;5060798;28;20949;-77